Flight Track Log - Related Links

Times and Time Zones

All times are in EDT time to prevent confusion due to time zone crossing. See the ASQ6041 flight status page for this flight to view local times or setup timezone preferences in your user account.

Time Position Orientation Groundspeed Altitude Reporting Facility
EDT Latitude Longitude Course Direction KTS MPH feet Rate Location/Type
Sun 02:00:13 PM 40.8019 -96.7689 211° Southwest 170 196 3,100  Level Minneapolis Center
Sun 02:00:42 PM 40.8011 -96.7936 267° West 164 189 4,000 2,242 Climbing Minneapolis Center
Sun 02:01:44 PM 40.7900 -96.8756 260° West 213 245 6,500 2,537 Climbing Minneapolis Center
Sun 02:02:45 PM 40.7819 -96.9675 263° West 245 282 9,200 2,341 Climbing Minneapolis Center
Sun 02:03:47 PM 40.7697 -97.0656 261° West 264 304 11,300 1,512 Climbing Minneapolis Center
Sun 02:04:48 PM 40.7558 -97.1814 261° West 309 356 12,300 1,415 Climbing Minneapolis Center
Sun 02:05:50 PM 40.7383 -97.3322 261° West 342 394 14,200 1,610 Climbing Minneapolis Center
Sun 02:06:51 PM 40.7228 -97.4550 261° West 354 407 15,600 1,415 Climbing Minneapolis Center
Sun 02:07:53 PM 40.7094 -97.5858 262° West 358 412 17,100 1,403 Climbing Minneapolis Center
Sun 02:08:55 PM 40.6919 -97.7172 260° West 362 417 18,500 1,415 Climbing Minneapolis Center
Sun 02:09:56 PM 40.6764 -97.8494 261° West 364 419 20,000 1,463 Climbing Minneapolis Center
Sun 02:10:58 PM 40.6606 -97.9831 261° West 367 422 21,500 1,452 Climbing Minneapolis Center
Sun 02:12:00 PM 40.6439 -98.1172 261° West 369 425 23,000 1,463 Climbing Minneapolis Center
Sun 02:13:01 PM 40.6239 -98.2781 261° West 369 425 24,500 1,220 Climbing Minneapolis Center
Sun 02:14:03 PM 40.6075 -98.4153 261° West 375 432 25,500 976 Climbing Minneapolis Center
Sun 02:15:04 PM 40.6158 -98.5556 275° West 385 443 26,500 927 Climbing Minneapolis Center
Sun 02:16:06 PM 40.6269 -98.6944 276° West 380 437 27,400 919 Climbing Minneapolis Center
Sun 02:17:08 PM 40.6403 -98.8331 277° West 380 437 28,400 976 Climbing Minneapolis Center
Sun 02:18:09 PM 40.6528 -98.9711 277° West 378 435 29,400 976 Climbing Minneapolis Center
Sun 02:19:11 PM 40.6642 -99.1097 276° West 378 435 30,400 1,085 Climbing Minneapolis Center
Sun 02:19:43 PM 40.6714 -99.1933 277° West 382 440 31,100 962 Climbing Denver Center
Sun 02:20:57 PM 40.6833 -99.3336 276° West 383 441 32,100 926 Climbing Denver Center
Sun 02:21:59 PM 40.6975 -99.5025 276° West 386 444 33,200 919 Climbing Denver Center
Sun 02:23:01 PM 40.7092 -99.6433 276° West 387 445 34,000 387 Climbing Denver Center
Sun 02:24:03 PM 40.7214 -99.7875 276° West 392 451 34,000  Level Denver Center
Sun 02:25:04 PM 40.7344 -99.9514 276° West 399 459 34,000  Level Denver Center
Sun 02:26:06 PM 40.7450 -100.0906 276° West 400 460 34,000  Level Denver Center
Sun 02:27:08 PM 40.7569 -100.2517 276° West 397 457 34,000  Level Denver Center
Sun 02:28:10 PM 40.7669 -100.3894 276° West 394 453 34,000  Level Denver Center
Sun 02:29:12 PM 40.7556 -100.5528 265° West 402 463 34,000  Level Denver Center
Sun 02:30:13 PM 40.7339 -100.6950 259° West 405 466 34,000  Level Denver Center
Sun 02:31:15 PM 40.7119 -100.8369 259° West 404 465 34,000  Level Denver Center
Sun 02:32:17 PM 40.6864 -101.0008 258° West 404 465 34,000  Level Denver Center
Sun 02:33:19 PM 40.6650 -101.1397 259° West 404 465 34,000  Level Denver Center
Sun 02:34:21 PM 40.6436 -101.2772 258° West 402 463 34,000  Level Denver Center
Sun 02:35:23 PM 40.6175 -101.4378 258° West 402 463 34,000  Level Denver Center
Sun 02:36:24 PM 40.5958 -101.5747 258° West 399 459 34,000  Level Denver Center
Sun 02:37:26 PM 40.5697 -101.7342 258° West 399 459 34,000  Level Denver Center
Sun 02:38:28 PM 40.5469 -101.8708 258° West 399 459 34,000  Level Denver Center
Sun 02:39:30 PM 40.5192 -102.0303 257° West 399 459 34,000  Level Denver Center
Sun 02:40:32 PM 40.4967 -102.1672 258° West 401 461 34,000  Level Denver Center
Sun 02:41:34 PM 40.4692 -102.3264 257° West 401 461 34,000  Level Denver Center
Sun 02:42:35 PM 40.4461 -102.4625 257° West 399 459 34,000  Level Denver Center
Sun 02:43:37 PM 40.4233 -102.5981 258° West 398 458 34,000  Level Denver Center
Sun 02:44:39 PM 40.3972 -102.7447 257° West 401 461 34,000  Level Denver Center
Sun 02:45:41 PM 40.3686 -102.9131 257° West 403 464 34,000 -98 Level Denver Center
Sun 02:46:42 PM 40.3436 -103.0558 257° West 401 461 33,800 -1,073 Descending Denver Center
Sun 02:47:44 PM 40.3181 -103.1967 257° West 394 453 31,800 -1,984 Descending Denver Center
Sun 02:48:46 PM 40.2942 -103.3342 257° West 385 443 29,700 -2,032 Descending Denver Center
Sun 02:49:48 PM 40.2700 -103.4697 257° West 381 438 27,600 -2,000 Descending Denver Center
Sun 02:50:49 PM 40.2450 -103.6053 256° West 382 440 25,600 -2,049 Descending Denver Center
Sun 02:51:51 PM 40.2178 -103.7528 256° West 381 438 23,400 -1,887 Descending Denver Center
Sun 02:52:53 PM 40.1928 -103.8683 254° West 330 380 21,700 -1,854 Descending Denver Center
Sun 02:53:54 PM 40.1483 -103.9653 239° Southwest 314 361 19,600 -1,902 Descending Denver Center
Sun 02:54:56 PM 40.0994 -104.0678 238° Southwest 309 356 17,800 -1,597 Descending Denver Center
Sun 02:55:58 PM 40.0569 -104.1631 240° Southwest 306 352 16,300 -1,258 Descending Denver Center
Sun 02:57:00 PM 40.0139 -104.2561 239° Southwest 301 346 15,200 -1,073 Descending Denver Center
Sun 02:58:01 PM 39.9692 -104.3517 239° Southwest 285 328 14,100 -1,073 Descending Denver Center
Sun 02:59:03 PM 39.9289 -104.4367 238° Southwest 276 318 13,000 -1,317 Descending Denver Center
Sun 02:59:23 PM 39.9167 -104.4667 242° Southwest 273 314 12,300 -1,742 Descending Denver TRACON
Sun 03:00:05 PM 39.8678 -104.4997 207° Southwest 272 313 11,200 -750 Descending Denver Center
Sun 03:01:07 PM 39.7983 -104.5006 181° South 248 285 11,000 -488 Descending Denver Center
Sun 03:02:08 PM 39.7347 -104.5200 193° South 239 275 10,200 -1,171 Descending Denver Center
Sun 03:03:10 PM 39.6933 -104.5853 231° Southwest 235 270 8,600 -1,258 Descending Denver Center
Sun 03:04:12 PM 39.7267 -104.6528 303° West 225 259 7,600 -1,016 Descending Denver Center
Sun 03:05:14 PM 39.7786 -104.6611 353° North 188 216 6,500 -968 Descending Denver Center
Sun 03:06:16 PM 39.8250 -104.6608 360° North 158 182 5,600 -871 Descending Denver Center
Sun 03:08:00 PM 39.8500 -104.6667 North  Level FlightAware Approximate
Sun 03:15:00 PM 39.8617 -104.6732 North  Level Estimated
Sun 03:16:00 PM 39.8617 -104.6732 North  Level Estimated
Sun 03:17:00 PM 39.8617 -104.6732 North  Level Estimated

Login

Don't have an account? Register now (free) for customized features, flight alerts, and more!